Aviation Digital Data Service (ADDS)

Output produced by METARs form (0418 UTC 26 June 2019)
found at http://www.aviationweather.gov/metar/data/
 
METAR text: UACC 260400Z 23006MPS 9999 FEW036CB SCT130 26/14 Q1007 R22/0///70 NOSIG RMK QFE724/0965
Conditions at: UACC (ASTANA KAZAKHSTA, KZ) observed 0400 UTC 26 June 2019
Temperature: 26.0°C (79°F)
Dewpoint: 14.0°C (57°F) [RH = 48%]
Pressure (altimeter): 29.73 inches Hg (1007.0 mb)
Winds: from the SW (230 degrees) at 14 MPH (12 knots; 6.2 m/s)
Visibility: 6 or more miles (10+ km)
Ceiling: at least 12,000 feet AGL
Clouds: few clouds at 3600 feet AGL
scattered clouds at 13000 feet AGL
Weather: no significant weather observed at this time

METAR text: UACC 260330Z 22007MPS 9999 FEW036CB SCT150 26/13 Q1007 R22/0///70 NOSIG RMK QFE724/0965
Conditions at: UACC (ASTANA KAZAKHSTA, KZ) observed 0330 UTC 26 June 2019
Temperature: 26.0°C (79°F)
Dewpoint: 13.0°C (55°F) [RH = 45%]
Pressure (altimeter): 29.73 inches Hg (1007.0 mb)
Winds: from the SW (220 degrees) at 16 MPH (14 knots; 7.2 m/s)
Visibility: 6 or more miles (10+ km)
Ceiling: at least 12,000 feet AGL
Clouds: few clouds at 3600 feet AGL
scattered clouds at 15000 feet AGL
Weather: no significant weather observed at this time

METAR text: UACC 260300Z 23008MPS CAVOK 26/13 Q1007 R22/0///70 NOSIG RMK QFE724/0965
Conditions at: UACC (ASTANA KAZAKHSTA, KZ) observed 0300 UTC 26 June 2019
Temperature: 26.0°C (79°F)
Dewpoint: 13.0°C (55°F) [RH = 45%]
Pressure (altimeter): 29.73 inches Hg (1007.0 mb)
Winds: from the SW (230 degrees) at 18 MPH (16 knots; 8.2 m/s)
Visibility: 6 or more miles (10+ km)
Ceiling: ceiling and visibility are OK
Clouds: unknown
Weather: no significant weather observed at this time

METAR text: UACC 260230Z 23009MPS CAVOK 25/13 Q1007 R22/0///70 NOSIG RMK QFE724/0965
Conditions at: UACC (ASTANA KAZAKHSTA, KZ) observed 0230 UTC 26 June 2019
Temperature: 25.0°C (77°F)
Dewpoint: 13.0°C (55°F) [RH = 47%]
Pressure (altimeter): 29.73 inches Hg (1007.0 mb)
Winds: from the SW (230 degrees) at 20 MPH (17 knots; 8.7 m/s)
Visibility: 6 or more miles (10+ km)
Ceiling: ceiling and visibility are OK
Clouds: unknown
Weather: no significant weather observed at this time

METAR text: UACC 260200Z 22008MPS CAVOK 23/13 Q1007 R22/0///70 NOSIG RMK QFE724/0966
Conditions at: UACC (ASTANA KAZAKHSTA, KZ) observed 0200 UTC 26 June 2019
Temperature: 23.0°C (73°F)
Dewpoint: 13.0°C (55°F) [RH = 53%]
Pressure (altimeter): 29.73 inches Hg (1007.0 mb)
Winds: from the SW (220 degrees) at 18 MPH (16 knots; 8.2 m/s)
Visibility: 6 or more miles (10+ km)
Ceiling: ceiling and visibility are OK
Clouds: unknown
Weather: no significant weather observed at this time

METAR text: UACC 260130Z 21007MPS CAVOK 22/14 Q1007 R22/0///70 NOSIG RMK QFE724/0966
Conditions at: UACC (ASTANA KAZAKHSTA, KZ) observed 0130 UTC 26 June 2019
Temperature: 22.0°C (72°F)
Dewpoint: 14.0°C (57°F) [RH = 60%]
Pressure (altimeter): 29.73 inches Hg (1007.0 mb)
Winds: from the SSW (210 degrees) at 16 MPH (14 knots; 7.2 m/s)
Visibility: 6 or more miles (10+ km)
Ceiling: ceiling and visibility are OK
Clouds: unknown
Weather: no significant weather observed at this time

METAR text: UACC 260100Z 19008MPS CAVOK 22/13 Q1007 R22/0///70 NOSIG RMK QFE724/0966
Conditions at: UACC (ASTANA KAZAKHSTA, KZ) observed 0100 UTC 26 June 2019
Temperature: 22.0°C (72°F)
Dewpoint: 13.0°C (55°F) [RH = 57%]
Pressure (altimeter): 29.73 inches Hg (1007.0 mb)
Winds: from the S (190 degrees) at 18 MPH (16 knots; 8.2 m/s)
Visibility: 6 or more miles (10+ km)
Ceiling: ceiling and visibility are OK
Clouds: unknown
Weather: no significant weather observed at this time

METAR text: UACC 260030Z 18008MPS CAVOK 21/13 Q1007 R22/0///70 NOSIG RMK QFE724/0966
Conditions at: UACC (ASTANA KAZAKHSTA, KZ) observed 0030 UTC 26 June 2019
Temperature: 21.0°C (70°F)
Dewpoint: 13.0°C (55°F) [RH = 60%]
Pressure (altimeter): 29.73 inches Hg (1007.0 mb)
Winds: from the S (180 degrees) at 18 MPH (16 knots; 8.2 m/s)
Visibility: 6 or more miles (10+ km)
Ceiling: ceiling and visibility are OK
Clouds: unknown
Weather: no significant weather observed at this time

METAR text: UACC 260000Z 19008MPS CAVOK 20/13 Q1007 R22/0///70 NOSIG RMK QFE724/0966
Conditions at: UACC (ASTANA KAZAKHSTA, KZ) observed 0000 UTC 26 June 2019
Temperature: 20.0°C (68°F)
Dewpoint: 13.0°C (55°F) [RH = 64%]
Pressure (altimeter): 29.73 inches Hg (1007.0 mb)
Winds: from the S (190 degrees) at 18 MPH (16 knots; 8.2 m/s)
Visibility: 6 or more miles (10+ km)
Ceiling: ceiling and visibility are OK
Clouds: unknown
Weather: no significant weather observed at this time

METAR text: UACC 252330Z 18007MPS CAVOK 20/14 Q1007 R22/0///70 NOSIG RMK QFE724/0966
Conditions at: UACC (ASTANA KAZAKHSTA, KZ) observed 2330 UTC 25 June 2019
Temperature: 20.0°C (68°F)
Dewpoint: 14.0°C (57°F) [RH = 68%]
Pressure (altimeter): 29.73 inches Hg (1007.0 mb)
Winds: from the S (180 degrees) at 16 MPH (14 knots; 7.2 m/s)
Visibility: 6 or more miles (10+ km)
Ceiling: ceiling and visibility are OK
Clouds: unknown
Weather: no significant weather observed at this time

METAR text: UACC 252300Z 18007MPS CAVOK 20/14 Q1008 R22/0///70 NOSIG RMK QFE725/0966
Conditions at: UACC (ASTANA KAZAKHSTA, KZ) observed 2300 UTC 25 June 2019
Temperature: 20.0°C (68°F)
Dewpoint: 14.0°C (57°F) [RH = 68%]
Pressure (altimeter): 29.76 inches Hg (1008.0 mb)
Winds: from the S (180 degrees) at 16 MPH (14 knots; 7.2 m/s)
Visibility: 6 or more miles (10+ km)
Ceiling: ceiling and visibility are OK
Clouds: unknown
Weather: no significant weather observed at this time

METAR text: UACC 252230Z 18007MPS CAVOK 20/14 Q1008 R22/0///70 NOSIG RMK QFE725/0966
Conditions at: UACC (ASTANA KAZAKHSTA, KZ) observed 2230 UTC 25 June 2019
Temperature: 20.0°C (68°F)
Dewpoint: 14.0°C (57°F) [RH = 68%]
Pressure (altimeter): 29.76 inches Hg (1008.0 mb)
Winds: from the S (180 degrees) at 16 MPH (14 knots; 7.2 m/s)
Visibility: 6 or more miles (10+ km)
Ceiling: ceiling and visibility are OK
Clouds: unknown
Weather: no significant weather observed at this time

METAR text: UACC 252200Z 18007MPS CAVOK 21/14 Q1008 R22/0///70 NOSIG RMK QFE725/0967
Conditions at: UACC (ASTANA KAZAKHSTA, KZ) observed 2200 UTC 25 June 2019
Temperature: 21.0°C (70°F)
Dewpoint: 14.0°C (57°F) [RH = 64%]
Pressure (altimeter): 29.76 inches Hg (1008.0 mb)
Winds: from the S (180 degrees) at 16 MPH (14 knots; 7.2 m/s)
Visibility: 6 or more miles (10+ km)
Ceiling: ceiling and visibility are OK
Clouds: unknown
Weather: no significant weather observed at this time

METAR text: UACC 252130Z 18007MPS CAVOK 21/15 Q1008 R22/0///70 NOSIG RMK QFE725/0967
Conditions at: UACC (ASTANA KAZAKHSTA, KZ) observed 2130 UTC 25 June 2019
Temperature: 21.0°C (70°F)
Dewpoint: 15.0°C (59°F) [RH = 69%]
Pressure (altimeter): 29.76 inches Hg (1008.0 mb)
Winds: from the S (180 degrees) at 16 MPH (14 knots; 7.2 m/s)
Visibility: 6 or more miles (10+ km)
Ceiling: ceiling and visibility are OK
Clouds: unknown
Weather: no significant weather observed at this time

METAR text: UACC 252100Z 17007MPS CAVOK 20/15 Q1009 R22/0///70 NOSIG RMK QFE725/0967
Conditions at: UACC (ASTANA KAZAKHSTA, KZ) observed 2100 UTC 25 June 2019
Temperature: 20.0°C (68°F)
Dewpoint: 15.0°C (59°F) [RH = 73%]
Pressure (altimeter): 29.79 inches Hg (1009.0 mb)
Winds: from the S (170 degrees) at 16 MPH (14 knots; 7.2 m/s)
Visibility: 6 or more miles (10+ km)
Ceiling: ceiling and visibility are OK
Clouds: unknown
Weather: no significant weather observed at this time

METAR text: UACC 252030Z 17005MPS CAVOK 20/15 Q1009 R22/0///70 NOSIG RMK QFE726/0968
Conditions at: UACC (ASTANA KAZAKHSTA, KZ) observed 2030 UTC 25 June 2019
Temperature: 20.0°C (68°F)
Dewpoint: 15.0°C (59°F) [RH = 73%]
Pressure (altimeter): 29.79 inches Hg (1009.0 mb)
Winds: from the S (170 degrees) at 12 MPH (10 knots; 5.1 m/s)
Visibility: 6 or more miles (10+ km)
Ceiling: ceiling and visibility are OK
Clouds: unknown
Weather: no significant weather observed at this time

METAR text: UACC 252000Z 17005MPS CAVOK 20/16 Q1010 R22/0///70 NOSIG RMK QFE726/0968
Conditions at: UACC (ASTANA KAZAKHSTA, KZ) observed 2000 UTC 25 June 2019
Temperature: 20.0°C (68°F)
Dewpoint: 16.0°C (61°F) [RH = 78%]
Pressure (altimeter): 29.82 inches Hg (1010.0 mb)
Winds: from the S (170 degrees) at 12 MPH (10 knots; 5.1 m/s)
Visibility: 6 or more miles (10+ km)
Ceiling: ceiling and visibility are OK
Clouds: unknown
Weather: no significant weather observed at this time

METAR text: UACC 251930Z 16005MPS CAVOK 21/16 Q1010 R22/0///70 NOSIG RMK QFE726/0969
Conditions at: UACC (ASTANA KAZAKHSTA, KZ) observed 1930 UTC 25 June 2019
Temperature: 21.0°C (70°F)
Dewpoint: 16.0°C (61°F) [RH = 73%]
Pressure (altimeter): 29.82 inches Hg (1010.0 mb)
Winds: from the SSE (160 degrees) at 12 MPH (10 knots; 5.1 m/s)
Visibility: 6 or more miles (10+ km)
Ceiling: ceiling and visibility are OK
Clouds: unknown
Weather: no significant weather observed at this time

METAR text: UACC 251900Z 18006MPS CAVOK 21/16 Q1010 R22/0///70 NOSIG RMK QFE727/0969
Conditions at: UACC (ASTANA KAZAKHSTA, KZ) observed 1900 UTC 25 June 2019
Temperature: 21.0°C (70°F)
Dewpoint: 16.0°C (61°F) [RH = 73%]
Pressure (altimeter): 29.82 inches Hg (1010.0 mb)
Winds: from the S (180 degrees) at 14 MPH (12 knots; 6.2 m/s)
Visibility: 6 or more miles (10+ km)
Ceiling: ceiling and visibility are OK
Clouds: unknown
Weather: no significant weather observed at this time

METAR text: UACC 251830Z 17004MPS CAVOK 21/16 Q1011 R22/0///70 NOSIG RMK QFE727/0969
Conditions at: UACC (ASTANA KAZAKHSTA, KZ) observed 1830 UTC 25 June 2019
Temperature: 21.0°C (70°F)
Dewpoint: 16.0°C (61°F) [RH = 73%]
Pressure (altimeter): 29.85 inches Hg (1011.0 mb)
Winds: from the S (170 degrees) at 9 MPH (8 knots; 4.1 m/s)
Visibility: 6 or more miles (10+ km)
Ceiling: ceiling and visibility are OK
Clouds: unknown
Weather: no significant weather observed at this time

METAR text: UACC 251800Z 17005MPS CAVOK 21/17 Q1011 R22/0///70 NOSIG RMK QFE727/0969
Conditions at: UACC (ASTANA KAZAKHSTA, KZ) observed 1800 UTC 25 June 2019
Temperature: 21.0°C (70°F)
Dewpoint: 17.0°C (63°F) [RH = 78%]
Pressure (altimeter): 29.85 inches Hg (1011.0 mb)
Winds: from the S (170 degrees) at 12 MPH (10 knots; 5.1 m/s)
Visibility: 6 or more miles (10+ km)
Ceiling: ceiling and visibility are OK
Clouds: unknown
Weather: no significant weather observed at this time

METAR text: UACC 251730Z 15005MPS CAVOK 22/17 Q1011 R22/0///70 NOSIG RMK QFE727/0970
Conditions at: UACC (ASTANA KAZAKHSTA, KZ) observed 1730 UTC 25 June 2019
Temperature: 22.0°C (72°F)
Dewpoint: 17.0°C (63°F) [RH = 73%]
Pressure (altimeter): 29.85 inches Hg (1011.0 mb)
Winds: from the SSE (150 degrees) at 12 MPH (10 knots; 5.1 m/s)
Visibility: 6 or more miles (10+ km)
Ceiling: ceiling and visibility are OK
Clouds: unknown
Weather: no significant weather observed at this time

METAR text: UACC 251700Z 15005MPS CAVOK 22/18 Q1011 R22/0///70 NOSIG RMK QFE727/0970
Conditions at: UACC (ASTANA KAZAKHSTA, KZ) observed 1700 UTC 25 June 2019
Temperature: 22.0°C (72°F)
Dewpoint: 18.0°C (64°F) [RH = 78%]
Pressure (altimeter): 29.85 inches Hg (1011.0 mb)
Winds: from the SSE (150 degrees) at 12 MPH (10 knots; 5.1 m/s)
Visibility: 6 or more miles (10+ km)
Ceiling: ceiling and visibility are OK
Clouds: unknown
Weather: no significant weather observed at this time

METAR text: UACC 251630Z 14004MPS CAVOK 23/18 Q1012 R22/0///70 NOSIG RMK QFE728/0970
Conditions at: UACC (ASTANA KAZAKHSTA, KZ) observed 1630 UTC 25 June 2019
Temperature: 23.0°C (73°F)
Dewpoint: 18.0°C (64°F) [RH = 73%]
Pressure (altimeter): 29.88 inches Hg (1012.0 mb)
Winds: from the SE (140 degrees) at 9 MPH (8 knots; 4.1 m/s)
Visibility: 6 or more miles (10+ km)
Ceiling: ceiling and visibility are OK
Clouds: unknown
Weather: no significant weather observed at this time

METAR text: UACC 251600Z 15004MPS CAVOK 23/19 Q1012 R22/0///70 NOSIG RMK QFE728/0970
Conditions at: UACC (ASTANA KAZAKHSTA, KZ) observed 1600 UTC 25 June 2019
Temperature: 23.0°C (73°F)
Dewpoint: 19.0°C (66°F) [RH = 78%]
Pressure (altimeter): 29.88 inches Hg (1012.0 mb)
Winds: from the SSE (150 degrees) at 9 MPH (8 knots; 4.1 m/s)
Visibility: 6 or more miles (10+ km)
Ceiling: ceiling and visibility are OK
Clouds: unknown
Weather: no significant weather observed at this time

METAR text: UACC 251530Z 15004MPS CAVOK 25/18 Q1012 R22/0///70 NOSIG RMK QFE728/0970
Conditions at: UACC (ASTANA KAZAKHSTA, KZ) observed 1530 UTC 25 June 2019
Temperature: 25.0°C (77°F)
Dewpoint: 18.0°C (64°F) [RH = 65%]
Pressure (altimeter): 29.88 inches Hg (1012.0 mb)
Winds: from the SSE (150 degrees) at 9 MPH (8 knots; 4.1 m/s)
Visibility: 6 or more miles (10+ km)
Ceiling: ceiling and visibility are OK
Clouds: unknown
Weather: no significant weather observed at this time

METAR text: UACC 251500Z 12004MPS 9999 FEW046CB BKN150 25/17 Q1012 R22/0///70 NOSIG RMK QFE728/0970
Conditions at: UACC (ASTANA KAZAKHSTA, KZ) observed 1500 UTC 25 June 2019
Temperature: 25.0°C (77°F)
Dewpoint: 17.0°C (63°F) [RH = 61%]
Pressure (altimeter): 29.88 inches Hg (1012.0 mb)
Winds: from the ESE (120 degrees) at 9 MPH (8 knots; 4.1 m/s)
Visibility: 6 or more miles (10+ km)
Ceiling: 15000 feet AGL
Clouds: few clouds at 4600 feet AGL
broken clouds at 15000 feet AGL
Weather: no significant weather observed at this time

METAR text: UACC 251430Z 13002MPS 9999 FEW046CB BKN150 27/15 Q1012 R22/0///70 NOSIG RMK QFE728/0971
Conditions at: UACC (ASTANA KAZAKHSTA, KZ) observed 1430 UTC 25 June 2019
Temperature: 27.0°C (81°F)
Dewpoint: 15.0°C (59°F) [RH = 48%]
Pressure (altimeter): 29.88 inches Hg (1012.0 mb)
Winds: from the SE (130 degrees) at 5 MPH (4 knots; 2.1 m/s)
Visibility: 6 or more miles (10+ km)
Ceiling: 15000 feet AGL
Clouds: few clouds at 4600 feet AGL
broken clouds at 15000 feet AGL
Weather: no significant weather observed at this time

METAR text: UACC 251400Z 14002MPS 9999 FEW046CB BKN150 27/16 Q1012 R22/0///70 NOSIG RMK QFE728/0971
Conditions at: UACC (ASTANA KAZAKHSTA, KZ) observed 1400 UTC 25 June 2019
Temperature: 27.0°C (81°F)
Dewpoint: 16.0°C (61°F) [RH = 51%]
Pressure (altimeter): 29.88 inches Hg (1012.0 mb)
Winds: from the SE (140 degrees) at 5 MPH (4 knots; 2.1 m/s)
Visibility: 6 or more miles (10+ km)
Ceiling: 15000 feet AGL
Clouds: few clouds at 4600 feet AGL
broken clouds at 15000 feet AGL
Weather: no significant weather observed at this time

METAR text: UACC 251330Z 19002MPS 9999 SCT046CB BKN150 29/15 Q1013 R22/0///70 NOSIG RMK QFE728/0971
Conditions at: UACC (ASTANA KAZAKHSTA, KZ) observed 1330 UTC 25 June 2019
Temperature: 29.0°C (84°F)
Dewpoint: 15.0°C (59°F) [RH = 43%]
Pressure (altimeter): 29.91 inches Hg (1013.0 mb)
Winds: from the S (190 degrees) at 5 MPH (4 knots; 2.1 m/s)
Visibility: 6 or more miles (10+ km)
Ceiling: 15000 feet AGL
Clouds: scattered clouds at 4600 feet AGL
broken clouds at 15000 feet AGL
Weather: no significant weather observed at this time

METAR text: UACC 251300Z 21003MPS 180V240 9999 SCT046CB BKN160 29/15 Q1012 R22/0///70 NOSIG RMK QFE728/0971
Conditions at: UACC (ASTANA KAZAKHSTA, KZ) observed 1300 UTC 25 June 2019
Temperature: 29.0°C (84°F)
Dewpoint: 15.0°C (59°F) [RH = 43%]
Pressure (altimeter): 29.88 inches Hg (1012.0 mb)
Winds: from the SSW (210 degrees) at 7 MPH (6 knots; 3.1 m/s)
Visibility: 6 or more miles (10+ km)
Ceiling: 16000 feet AGL
Clouds: scattered clouds at 4600 feet AGL
broken clouds at 16000 feet AGL
Weather: no significant weather observed at this time

METAR text: UACC 251230Z 22004MPS 9999 SCT046CB BKN230 29/14 Q1013 R22/0///70 NOSIG RMK QFE728/0971
Conditions at: UACC (ASTANA KAZAKHSTA, KZ) observed 1230 UTC 25 June 2019
Temperature: 29.0°C (84°F)
Dewpoint: 14.0°C (57°F) [RH = 40%]
Pressure (altimeter): 29.91 inches Hg (1013.0 mb)
Winds: from the SW (220 degrees) at 9 MPH (8 knots; 4.1 m/s)
Visibility: 6 or more miles (10+ km)
Ceiling: 23000 feet AGL
Clouds: scattered clouds at 4600 feet AGL
broken clouds at 23000 feet AGL
Weather: no significant weather observed at this time

METAR text: UACC 251200Z 21003MPS 180V240 9999 SCT046CB BKN230 29/17 Q1013 R22/0///70 NOSIG RMK QFE728/0971
Conditions at: UACC (ASTANA KAZAKHSTA, KZ) observed 1200 UTC 25 June 2019
Temperature: 29.0°C (84°F)
Dewpoint: 17.0°C (63°F) [RH = 48%]
Pressure (altimeter): 29.91 inches Hg (1013.0 mb)
Winds: from the SSW (210 degrees) at 7 MPH (6 knots; 3.1 m/s)
Visibility: 6 or more miles (10+ km)
Ceiling: 23000 feet AGL
Clouds: scattered clouds at 4600 feet AGL
broken clouds at 23000 feet AGL
Weather: no significant weather observed at this time

METAR text: UACC 251130Z 16003MPS 140V220 9999 SCT046CB BKN170 29/17 Q1013 R22/0///70 NOSIG RMK QFE729/0972
Conditions at: UACC (ASTANA KAZAKHSTA, KZ) observed 1130 UTC 25 June 2019
Temperature: 29.0°C (84°F)
Dewpoint: 17.0°C (63°F) [RH = 48%]
Pressure (altimeter): 29.91 inches Hg (1013.0 mb)
Winds: from the SSE (160 degrees) at 7 MPH (6 knots; 3.1 m/s)
Visibility: 6 or more miles (10+ km)
Ceiling: 17000 feet AGL
Clouds: scattered clouds at 4600 feet AGL
broken clouds at 17000 feet AGL
Weather: no significant weather observed at this time

METAR text: UACC 251100Z 22003MPS 160V270 9999 FEW046CB BKN170 29/15 Q1013 R22/0///70 NOSIG RMK QFE729/0972
Conditions at: UACC (ASTANA KAZAKHSTA, KZ) observed 1100 UTC 25 June 2019
Temperature: 29.0°C (84°F)
Dewpoint: 15.0°C (59°F) [RH = 43%]
Pressure (altimeter): 29.91 inches Hg (1013.0 mb)
Winds: from the SW (220 degrees) at 7 MPH (6 knots; 3.1 m/s)
Visibility: 6 or more miles (10+ km)
Ceiling: 17000 feet AGL
Clouds: few clouds at 4600 feet AGL
broken clouds at 17000 feet AGL
Weather: no significant weather observed at this time

METAR text: UACC 251030Z 26004MPS 9999 FEW046CB BKN170 28/17 Q1013 R04/0///70 NOSIG RMK QFE728/0971
Conditions at: UACC (ASTANA KAZAKHSTA, KZ) observed 1030 UTC 25 June 2019
Temperature: 28.0°C (82°F)
Dewpoint: 17.0°C (63°F) [RH = 51%]
Pressure (altimeter): 29.91 inches Hg (1013.0 mb)
Winds: from the W (260 degrees) at 9 MPH (8 knots; 4.1 m/s)
Visibility: 6 or more miles (10+ km)
Ceiling: 17000 feet AGL
Clouds: few clouds at 4600 feet AGL
broken clouds at 17000 feet AGL
Weather: no significant weather observed at this time

METAR text: UACC 251000Z 11003MPS 9999 FEW046CB BKN150 27/17 Q1013 R04/0///70 NOSIG RMK QFE728/0971
Conditions at: UACC (ASTANA KAZAKHSTA, KZ) observed 1000 UTC 25 June 2019
Temperature: 27.0°C (81°F)
Dewpoint: 17.0°C (63°F) [RH = 54%]
Pressure (altimeter): 29.91 inches Hg (1013.0 mb)
Winds: from the ESE (110 degrees) at 7 MPH (6 knots; 3.1 m/s)
Visibility: 6 or more miles (10+ km)
Ceiling: 15000 feet AGL
Clouds: few clouds at 4600 feet AGL
broken clouds at 15000 feet AGL
Weather: no significant weather observed at this time

METAR text: UACC 250930Z 11004MPS 9999 SCT046CB BKN100 27/17 Q1013 R04/0///70 NOSIG RMK QFE728/0971
Conditions at: UACC (ASTANA KAZAKHSTA, KZ) observed 0930 UTC 25 June 2019
Temperature: 27.0°C (81°F)
Dewpoint: 17.0°C (63°F) [RH = 54%]
Pressure (altimeter): 29.91 inches Hg (1013.0 mb)
Winds: from the ESE (110 degrees) at 9 MPH (8 knots; 4.1 m/s)
Visibility: 6 or more miles (10+ km)
Ceiling: 10000 feet AGL
Clouds: scattered clouds at 4600 feet AGL
broken clouds at 10000 feet AGL
Weather: no significant weather observed at this time

METAR text: UACC 250900Z 06005MPS 040V100 9999 SCT046CB BKN046 26/17 Q1014 R22/0///70 NOSIG RMK QFE729/0972
Conditions at: UACC (ASTANA KAZAKHSTA, KZ) observed 0900 UTC 25 June 2019
Temperature: 26.0°C (79°F)
Dewpoint: 17.0°C (63°F) [RH = 58%]
Pressure (altimeter): 29.94 inches Hg (1014.0 mb)
Winds: from the ENE (60 degrees) at 12 MPH (10 knots; 5.1 m/s)
Visibility: 6 or more miles (10+ km)
Ceiling: 4600 feet AGL
Clouds: scattered clouds at 4600 feet AGL
broken clouds at 4600 feet AGL
Weather: no significant weather observed at this time

METAR text: UACC 250830Z 14002MPS 090V180 9999 TS SCT043CB BKN043 27/17 Q1014 R22/0///70 NOSIG RMK QFE729/0973
Conditions at: UACC (ASTANA KAZAKHSTA, KZ) observed 0830 UTC 25 June 2019
Temperature: 27.0°C (81°F)
Dewpoint: 17.0°C (63°F) [RH = 54%]
Pressure (altimeter): 29.94 inches Hg (1014.0 mb)
Winds: from the SE (140 degrees) at 5 MPH (4 knots; 2.1 m/s)
Visibility: 6 or more miles (10+ km)
Ceiling: 4300 feet AGL
Clouds: scattered clouds at 4300 feet AGL
broken clouds at 4300 feet AGL
Weather: TS  (thunderstorm)

METAR text: UACC 250800Z 14003MPS 110V170 9999 SCT043CB BKN043 26/17 Q1014 R22/0///70 NOSIG RMK QFE729/0973
Conditions at: UACC (ASTANA KAZAKHSTA, KZ) observed 0800 UTC 25 June 2019
Temperature: 26.0°C (79°F)
Dewpoint: 17.0°C (63°F) [RH = 58%]
Pressure (altimeter): 29.94 inches Hg (1014.0 mb)
Winds: from the SE (140 degrees) at 7 MPH (6 knots; 3.1 m/s)
Visibility: 6 or more miles (10+ km)
Ceiling: 4300 feet AGL
Clouds: scattered clouds at 4300 feet AGL
broken clouds at 4300 feet AGL
Weather: no significant weather observed at this time

METAR text: UACC 250730Z 13003MPS 9999 SCT043CB BKN043 26/17 Q1014 R22/0///70 NOSIG RMK QFE729/0973
Conditions at: UACC (ASTANA KAZAKHSTA, KZ) observed 0730 UTC 25 June 2019
Temperature: 26.0°C (79°F)
Dewpoint: 17.0°C (63°F) [RH = 58%]
Pressure (altimeter): 29.94 inches Hg (1014.0 mb)
Winds: from the SE (130 degrees) at 7 MPH (6 knots; 3.1 m/s)
Visibility: 6 or more miles (10+ km)
Ceiling: 4300 feet AGL
Clouds: scattered clouds at 4300 feet AGL
broken clouds at 4300 feet AGL
Weather: no significant weather observed at this time

METAR text: UACC 250700Z 14004MPS 9999 FEW043CB BKN043 27/17 Q1015 R22/0///70 NOSIG RMK QFE730/0973
Conditions at: UACC (ASTANA KAZAKHSTA, KZ) observed 0700 UTC 25 June 2019
Temperature: 27.0°C (81°F)
Dewpoint: 17.0°C (63°F) [RH = 54%]
Pressure (altimeter): 29.97 inches Hg (1015.0 mb)
Winds: from the SE (140 degrees) at 9 MPH (8 knots; 4.1 m/s)
Visibility: 6 or more miles (10+ km)
Ceiling: 4300 feet AGL
Clouds: few clouds at 4300 feet AGL
broken clouds at 4300 feet AGL
Weather: no significant weather observed at this time

METAR text: UACC 250630Z 15003MPS 9999 SCT043CB BKN043 26/17 Q1014 R22/0///70 NOSIG RMK QFE729/0973
Conditions at: UACC (ASTANA KAZAKHSTA, KZ) observed 0630 UTC 25 June 2019
Temperature: 26.0°C (79°F)
Dewpoint: 17.0°C (63°F) [RH = 58%]
Pressure (altimeter): 29.94 inches Hg (1014.0 mb)
Winds: from the SSE (150 degrees) at 7 MPH (6 knots; 3.1 m/s)
Visibility: 6 or more miles (10+ km)
Ceiling: 4300 feet AGL
Clouds: scattered clouds at 4300 feet AGL
broken clouds at 4300 feet AGL
Weather: no significant weather observed at this time

METAR text: UACC 250600Z 23002MPS 9999 FEW036CB BKN036 27/17 Q1015 R22/0///70 NOSIG RMK QFE730/0973
Conditions at: UACC (ASTANA KAZAKHSTA, KZ) observed 0600 UTC 25 June 2019
Temperature: 27.0°C (81°F)
Dewpoint: 17.0°C (63°F) [RH = 54%]
Pressure (altimeter): 29.97 inches Hg (1015.0 mb)
Winds: from the SW (230 degrees) at 5 MPH (4 knots; 2.1 m/s)
Visibility: 6 or more miles (10+ km)
Ceiling: 3600 feet AGL
Clouds: few clouds at 3600 feet AGL
broken clouds at 3600 feet AGL
Weather: no significant weather observed at this time

METAR text: UACC 250530Z 25002MPS 180V320 9999 FEW036CB BKN036 25/17 Q1015 R22/0///70 NOSIG RMK QFE730/0973
Conditions at: UACC (ASTANA KAZAKHSTA, KZ) observed 0530 UTC 25 June 2019
Temperature: 25.0°C (77°F)
Dewpoint: 17.0°C (63°F) [RH = 61%]
Pressure (altimeter): 29.97 inches Hg (1015.0 mb)
Winds: from the WSW (250 degrees) at 5 MPH (4 knots; 2.1 m/s)
Visibility: 6 or more miles (10+ km)
Ceiling: 3600 feet AGL
Clouds: few clouds at 3600 feet AGL
broken clouds at 3600 feet AGL
Weather: no significant weather observed at this time

METAR text: UACC 250500Z VRB01MPS 9999 BKN033 26/17 Q1015 R22/0///70 NOSIG RMK QFE730/0973
Conditions at: UACC (ASTANA KAZAKHSTA, KZ) observed 0500 UTC 25 June 2019
Temperature: 26.0°C (79°F)
Dewpoint: 17.0°C (63°F) [RH = 58%]
Pressure (altimeter): 29.97 inches Hg (1015.0 mb)
Winds: variable direction winds at 2 MPH (2 knots; 1.0 m/s)
Visibility: 6 or more miles (10+ km)
Ceiling: 3300 feet AGL
Clouds: broken clouds at 3300 feet AGL
Weather: no significant weather observed at this time

METAR text: UACC 250430Z VRB01MPS 9999 SCT030 25/17 Q1015 R22/0///70 NOSIG RMK QFE730/0973
Conditions at: UACC (ASTANA KAZAKHSTA, KZ) observed 0430 UTC 25 June 2019
Temperature: 25.0°C (77°F)
Dewpoint: 17.0°C (63°F) [RH = 61%]
Pressure (altimeter): 29.97 inches Hg (1015.0 mb)
Winds: variable direction winds at 2 MPH (2 knots; 1.0 m/s)
Visibility: 6 or more miles (10+ km)
Ceiling: at least 12,000 feet AGL
Clouds: scattered clouds at 3000 feet AGL
Weather: no significant weather observed at this time

METAR text: UACC 250400Z 29003MPS 170V340 9999 SCT026 24/18 Q1015 R22/0///70 NOSIG RMK QFE730/0973
Conditions at: UACC (ASTANA KAZAKHSTA, KZ) observed 0400 UTC 25 June 2019
Temperature: 24.0°C (75°F)
Dewpoint: 18.0°C (64°F) [RH = 69%]
Pressure (altimeter): 29.97 inches Hg (1015.0 mb)
Winds: from the WNW (290 degrees) at 7 MPH (6 knots; 3.1 m/s)
Visibility: 6 or more miles (10+ km)
Ceiling: at least 12,000 feet AGL
Clouds: scattered clouds at 2600 feet AGL
Weather: no significant weather observed at this time

METAR text: UACC 250330Z 25003MPS 210V300 CAVOK 24/18 Q1015 R22/0///70 NOSIG RMK QFE730/0973
Conditions at: UACC (ASTANA KAZAKHSTA, KZ) observed 0330 UTC 25 June 2019
Temperature: 24.0°C (75°F)
Dewpoint: 18.0°C (64°F) [RH = 69%]
Pressure (altimeter): 29.97 inches Hg (1015.0 mb)
Winds: from the WSW (250 degrees) at 7 MPH (6 knots; 3.1 m/s)
Visibility: 6 or more miles (10+ km)
Ceiling: ceiling and visibility are OK
Clouds: unknown
Weather: no significant weather observed at this time

METAR text: UACC 250300Z 26002MPS 200V300 CAVOK 23/18 Q1015 R22/0///70 NOSIG RMK QFE730/0973
Conditions at: UACC (ASTANA KAZAKHSTA, KZ) observed 0300 UTC 25 June 2019
Temperature: 23.0°C (73°F)
Dewpoint: 18.0°C (64°F) [RH = 73%]
Pressure (altimeter): 29.97 inches Hg (1015.0 mb)
Winds: from the W (260 degrees) at 5 MPH (4 knots; 2.1 m/s)
Visibility: 6 or more miles (10+ km)
Ceiling: ceiling and visibility are OK
Clouds: unknown
Weather: no significant weather observed at this time

METAR text: UACC 250230Z 23002MPS 180V270 CAVOK 22/18 Q1015 R22/0///70 NOSIG RMK QFE730/0973
Conditions at: UACC (ASTANA KAZAKHSTA, KZ) observed 0230 UTC 25 June 2019
Temperature: 22.0°C (72°F)
Dewpoint: 18.0°C (64°F) [RH = 78%]
Pressure (altimeter): 29.97 inches Hg (1015.0 mb)
Winds: from the SW (230 degrees) at 5 MPH (4 knots; 2.1 m/s)
Visibility: 6 or more miles (10+ km)
Ceiling: ceiling and visibility are OK
Clouds: unknown
Weather: no significant weather observed at this time

METAR text: UACC 250200Z 23002MPS 9000 NSC 20/18 Q1015 R22/0///70 NOSIG RMK QFE730/0973
Conditions at: UACC (ASTANA KAZAKHSTA, KZ) observed 0200 UTC 25 June 2019
Temperature: 20.0°C (68°F)
Dewpoint: 18.0°C (64°F) [RH = 88%]
Pressure (altimeter): 29.97 inches Hg (1015.0 mb)
Winds: from the SW (230 degrees) at 5 MPH (4 knots; 2.1 m/s)
Visibility: 6 miles ( 9 km)
Ceiling: at least 12,000 feet AGL
Clouds: sky clear below 12,000 feet AGL
Weather: no significant weather observed at this time

METAR text: UACC 250130Z 00000MPS 6000 NSC 18/17 Q1015 R22/0///70 TEMPO 0200 FG VV001 RMK QFE730/0973
Conditions at: UACC (ASTANA KAZAKHSTA, KZ) observed 0130 UTC 25 June 2019
Temperature: 18.0°C (64°F)
Dewpoint: 17.0°C (63°F) [RH = 94%]
Pressure (altimeter): 29.97 inches Hg (1015.0 mb)
Winds: calm
Visibility: 4 miles ( 6 km)
Ceiling: at least 12,000 feet AGL
Clouds: sky clear below 12,000 feet AGL
Weather: no significant weather observed at this time

METAR text: UACC 250100Z 22002MPS 3800 BR FEW001 17/16 Q1014 R22/0///70 TEMPO 0200 FG VV001 RMK QBB050 QFE729/0973
Conditions at: UACC (ASTANA KAZAKHSTA, KZ) observed 0100 UTC 25 June 2019
Temperature: 17.0°C (63°F)
Dewpoint: 16.0°C (61°F) [RH = 94%]
Pressure (altimeter): 29.94 inches Hg (1014.0 mb)
Winds: from the SW (220 degrees) at 5 MPH (4 knots; 2.1 m/s)
Visibility: 2.36 miles (3.80 km)
Ceiling: at least 12,000 feet AGL
Clouds: few clouds at 100 feet AGL
Weather: BR  (mist)

METAR text: UACC 250030Z VRB01MPS 1800 BR SCT001 15/15 Q1014 R22/0///70 TEMPO 0200 FG VV001 RMK QBB030 QFE729/0973
Conditions at: UACC (ASTANA KAZAKHSTA, KZ) observed 0030 UTC 25 June 2019
Temperature: 15.0°C (59°F)
Dewpoint: 15.0°C (59°F) [RH = 100%]
Pressure (altimeter): 29.94 inches Hg (1014.0 mb)
Winds: variable direction winds at 2 MPH (2 knots; 1.0 m/s)
Visibility: 1.12 miles (1.80 km)
Ceiling: at least 12,000 feet AGL
Clouds: scattered clouds at 100 feet AGL
Weather: BR  (mist)

METAR text: UACC 250000Z 00000MPS 2500 BCFG SCT001 15/15 Q1014 R22/0///70 TEMPO 0200 FG VV001 RMK QBB050 QFE729/0973
Conditions at: UACC (ASTANA KAZAKHSTA, KZ) observed 0000 UTC 25 June 2019
Temperature: 15.0°C (59°F)
Dewpoint: 15.0°C (59°F) [RH = 100%]
Pressure (altimeter): 29.94 inches Hg (1014.0 mb)
Winds: calm
Visibility: 1.55 miles (2.49 km)
Ceiling: at least 12,000 feet AGL
Clouds: scattered clouds at 100 feet AGL
Weather: BCFG  (patches of fog)

METAR text: UACC 242330Z 24002MPS 0800 R22/0800 PRFG SCT001 15/15 Q1014 R22/0///70 TEMPO 0200 FG VV001 RMK QBB030 QFE729/0973
Conditions at: UACC (ASTANA KAZAKHSTA, KZ) observed 2330 UTC 24 June 2019
Temperature: 15.0°C (59°F)
Dewpoint: 15.0°C (59°F) [RH = 100%]
Pressure (altimeter): 29.94 inches Hg (1014.0 mb)
Winds: from the WSW (240 degrees) at 5 MPH (4 knots; 2.1 m/s)
Visibility: 0.50 miles (0.80 km)
Ceiling: at least 12,000 feet AGL
Clouds: scattered clouds at 100 feet AGL
Weather: PRFG  (partial fog)

METAR text: UACC 242300Z 26001MPS 3500 BCFG FEW001 BKN083 16/16 Q1014 R22/0///70 TEMPO 0200 FG VV001 RMK QBB050 QFE729/0973
Conditions at: UACC (ASTANA KAZAKHSTA, KZ) observed 2300 UTC 24 June 2019
Temperature: 16.0°C (61°F)
Dewpoint: 16.0°C (61°F) [RH = 100%]
Pressure (altimeter): 29.94 inches Hg (1014.0 mb)
Winds: from the W (260 degrees) at 2 MPH (2 knots; 1.0 m/s)
Visibility: 2.17 miles (3.49 km)
Ceiling: 8300 feet AGL
Clouds: few clouds at 100 feet AGL
broken clouds at 8300 feet AGL
Weather: BCFG  (patches of fog)

METAR text: UACC 242230Z 25001MPS 3000 BCFG SCT001 16/15 Q1014 R22/0///70 TEMPO 0200 FG VV001 RMK QBB050 QFE729/0973
Conditions at: UACC (ASTANA KAZAKHSTA, KZ) observed 2230 UTC 24 June 2019
Temperature: 16.0°C (61°F)
Dewpoint: 15.0°C (59°F) [RH = 94%]
Pressure (altimeter): 29.94 inches Hg (1014.0 mb)
Winds: from the WSW (250 degrees) at 2 MPH (2 knots; 1.0 m/s)
Visibility: 1.86 miles (2.99 km)
Ceiling: at least 12,000 feet AGL
Clouds: scattered clouds at 100 feet AGL
Weather: BCFG  (patches of fog)

METAR text: UACC 242200Z 25002MPS 0300 R04/0800 PRFG SCT000 15/15 Q1014 R04/0///70 TEMPO 0200 FG VV001 RMK QBB020 QFE729/0972
Conditions at: UACC (ASTANA KAZAKHSTA, KZ) observed 2200 UTC 24 June 2019
Temperature: 15.0°C (59°F)
Dewpoint: 15.0°C (59°F) [RH = 100%]
Pressure (altimeter): 29.94 inches Hg (1014.0 mb)
Winds: from the WSW (250 degrees) at 5 MPH (4 knots; 2.1 m/s)
Visibility: 0.19 miles (0.31 km)
Ceiling: at least 12,000 feet AGL
Clouds: scattered clouds at 0 feet AGL
Weather: PRFG  (partial fog)

METAR text: UACC 242130Z 22002MPS 180V240 3000 BR SCT000 15/14 Q1014 R04/0///70 TEMPO 0200 FG VV001 RMK QBB020 QFE729/0972
Conditions at: UACC (ASTANA KAZAKHSTA, KZ) observed 2130 UTC 24 June 2019
Temperature: 15.0°C (59°F)
Dewpoint: 14.0°C (57°F) [RH = 94%]
Pressure (altimeter): 29.94 inches Hg (1014.0 mb)
Winds: from the SW (220 degrees) at 5 MPH (4 knots; 2.1 m/s)
Visibility: 1.86 miles (2.99 km)
Ceiling: at least 12,000 feet AGL
Clouds: scattered clouds at 0 feet AGL
Weather: BR  (mist)

METAR text: UACC 242100Z 00000MPS 0200 R04/0600 PRFG SCT000 16/16 Q1014 R04/0///70 TEMPO 0200 FG VV001 RMK QBB020 QFE729/0972
Conditions at: UACC (ASTANA KAZAKHSTA, KZ) observed 2100 UTC 24 June 2019
Temperature: 16.0°C (61°F)
Dewpoint: 16.0°C (61°F) [RH = 100%]
Pressure (altimeter): 29.94 inches Hg (1014.0 mb)
Winds: calm
Visibility: 0.12 miles (0.19 km)
Ceiling: at least 12,000 feet AGL
Clouds: scattered clouds at 0 feet AGL
Weather: PRFG  (partial fog)

METAR text: UACC 242030Z 00000MPS 2500 BR SCT002 16/16 Q1014 R04/0///70 BECMG 0500 FG BKN001 RMK QBB070 QFE729/0972
Conditions at: UACC (ASTANA KAZAKHSTA, KZ) observed 2030 UTC 24 June 2019
Temperature: 16.0°C (61°F)
Dewpoint: 16.0°C (61°F) [RH = 100%]
Pressure (altimeter): 29.94 inches Hg (1014.0 mb)
Winds: calm
Visibility: 1.55 miles (2.49 km)
Ceiling: at least 12,000 feet AGL
Clouds: scattered clouds at 200 feet AGL
Weather: BR  (mist)

METAR text: UACC 242000Z 00000MPS 1000 R04/1900 BR SCT002 16/16 Q1014 R04/0///70 BECMG 0500 FG BKN001 RMK QBB070 QFE729/0972
Conditions at: UACC (ASTANA KAZAKHSTA, KZ) observed 2000 UTC 24 June 2019
Temperature: 16.0°C (61°F)
Dewpoint: 16.0°C (61°F) [RH = 100%]
Pressure (altimeter): 29.94 inches Hg (1014.0 mb)
Winds: calm
Visibility: 0.62 miles (1.00 km)
Ceiling: at least 12,000 feet AGL
Clouds: scattered clouds at 200 feet AGL
Weather: BR  (mist)

METAR text: UACC 241930Z 00000MPS 6000 FEW005 17/17 Q1014 R04/0///70 TEMPO 1000 BR BKN003 RMK QBB150 QFE729/0972
Conditions at: UACC (ASTANA KAZAKHSTA, KZ) observed 1930 UTC 24 June 2019
Temperature: 17.0°C (63°F)
Dewpoint: 17.0°C (63°F) [RH = 100%]
Pressure (altimeter): 29.94 inches Hg (1014.0 mb)
Winds: calm
Visibility: 4 miles ( 6 km)
Ceiling: at least 12,000 feet AGL
Clouds: few clouds at 500 feet AGL
Weather: no significant weather observed at this time

METAR text: UACC 241900Z 00000MPS 6000 NSC 17/16 Q1014 R04/0///70 TEMPO 3000 BR SCT005 RMK QFE729/0972
Conditions at: UACC (ASTANA KAZAKHSTA, KZ) observed 1900 UTC 24 June 2019
Temperature: 17.0°C (63°F)
Dewpoint: 16.0°C (61°F) [RH = 94%]
Pressure (altimeter): 29.94 inches Hg (1014.0 mb)
Winds: calm
Visibility: 4 miles ( 6 km)
Ceiling: at least 12,000 feet AGL
Clouds: sky clear below 12,000 feet AGL
Weather: no significant weather observed at this time

METAR text: UACC 241830Z VRB01MPS 7000 NSC 19/17 Q1014 R04/0///70 TEMPO 3000 BR SCT005 RMK QFE729/0972
Conditions at: UACC (ASTANA KAZAKHSTA, KZ) observed 1830 UTC 24 June 2019
Temperature: 19.0°C (66°F)
Dewpoint: 17.0°C (63°F) [RH = 88%]
Pressure (altimeter): 29.94 inches Hg (1014.0 mb)
Winds: variable direction winds at 2 MPH (2 knots; 1.0 m/s)
Visibility: 4 miles ( 7 km)
Ceiling: at least 12,000 feet AGL
Clouds: sky clear below 12,000 feet AGL
Weather: no significant weather observed at this time

METAR text: UACC 241800Z 00000MPS 5000 BR NSC 19/17 Q1014 R04/0///70 TEMPO 3000 BR SCT005 RMK QFE729/0972
Conditions at: UACC (ASTANA KAZAKHSTA, KZ) observed 1800 UTC 24 June 2019
Temperature: 19.0°C (66°F)
Dewpoint: 17.0°C (63°F) [RH = 88%]
Pressure (altimeter): 29.94 inches Hg (1014.0 mb)
Winds: calm
Visibility: 3 miles ( 5 km)
Ceiling: at least 12,000 feet AGL
Clouds: sky clear below 12,000 feet AGL
Weather: BR  (mist)

METAR text: UACC 241730Z 00000MPS CAVOK 18/16 Q1014 R04/0///70 NOSIG RMK QFE729/0972
Conditions at: UACC (ASTANA KAZAKHSTA, KZ) observed 1730 UTC 24 June 2019
Temperature: 18.0°C (64°F)
Dewpoint: 16.0°C (61°F) [RH = 88%]
Pressure (altimeter): 29.94 inches Hg (1014.0 mb)
Winds: calm
Visibility: 6 or more miles (10+ km)
Ceiling: ceiling and visibility are OK
Clouds: unknown
Weather: no significant weather observed at this time

METAR text: UACC 241700Z 00000MPS CAVOK 19/17 Q1014 R04/0///70 NOSIG RMK QFE729/0972
Conditions at: UACC (ASTANA KAZAKHSTA, KZ) observed 1700 UTC 24 June 2019
Temperature: 19.0°C (66°F)
Dewpoint: 17.0°C (63°F) [RH = 88%]
Pressure (altimeter): 29.94 inches Hg (1014.0 mb)
Winds: calm
Visibility: 6 or more miles (10+ km)
Ceiling: ceiling and visibility are OK
Clouds: unknown
Weather: no significant weather observed at this time

METAR text: UACC 241630Z VRB01MPS CAVOK 19/17 Q1013 R04/0///70 NOSIG RMK QFE729/0972
Conditions at: UACC (ASTANA KAZAKHSTA, KZ) observed 1630 UTC 24 June 2019
Temperature: 19.0°C (66°F)
Dewpoint: 17.0°C (63°F) [RH = 88%]
Pressure (altimeter): 29.91 inches Hg (1013.0 mb)
Winds: variable direction winds at 2 MPH (2 knots; 1.0 m/s)
Visibility: 6 or more miles (10+ km)
Ceiling: ceiling and visibility are OK
Clouds: unknown
Weather: no significant weather observed at this time

Forecast for: UACC (ASTANA KAZAKHSTA, KZ)
Text: TAF UACC 252300Z 2600/2624 21009MPS 9999 SCT030CB BKN100 TX31/2610Z TN18/2523Z
Forecast period: 0000 to 0600 UTC 26 June 2019
Forecast type: FROM: standard forecast or significant change
Winds: from the SSW (210 degrees) at 20 MPH (17 knots; 8.7 m/s)
Visibility: 6 or more miles 10+ km)
Ceiling: 10000 feet AGL
Clouds: scattered clouds at 3000 feet AGL
broken clouds at 10000 feet AGL
Weather: no significant weather forecast for this period
Text: PROB40
Forecast period: 0000 to 0600 UTC 26 June 2019
Forecast type: TEMPORARY: The following changes expected for less than half the time period
Visibility: missing
Ceiling: unknown
Clouds: missing
Weather: TS  (thunderstorm)
Text: TEMPO 2600/2606 TS
Forecast period: 0600 to 1600 UTC 26 June 2019
Forecast type: BECOMING: Conditions expected to become as follows by 0800 UTC 26 June 2019
Winds: from the NW (320 degrees) at 18 MPH (16 knots; 8.2 m/s)
Visibility: 6 or more miles 10+ km)
Ceiling: 10000 feet AGL
Clouds: scattered clouds at 3000 feet AGL
broken clouds at 10000 feet AGL
Weather: no significant weather forecast for this period
Text: BECMG 2606/2608 32008MPS
Forecast period: 0600 to 1600 UTC 26 June 2019
Forecast type: TEMPORARY: The following changes expected for less than half the time period
Winds: variable direction winds at 45 MPH (39 knots; 20.1 m/s)
Visibility: 1.93 miles (3.11 km)
Ceiling: 3000 feet AGL
Clouds: broken clouds at 3000 feet AGL
Weather: TSRA SQ  (rain associated with thunderstorm(s), squal)
Text: TEMPO 2606/2616 VRB20MPS 3100 TSRA SQ BKN030CB
Forecast period: 1600 UTC 26 June 2019 to 0000 UTC 27 June 2019
Forecast type: BECOMING: Conditions expected to become as follows by 1800 UTC 26 June 2019
Winds: from the NE (40 degrees) at 14 MPH (12 knots; 6.2 m/s)
Visibility: 6 or more miles 10+ km)
Ceiling: 10000 feet AGL
Clouds: scattered clouds at 3000 feet AGL
broken clouds at 10000 feet AGL
Weather: no significant weather forecast for this period
Text: BECMG 2616/2618 04006MPS
Forecast period: 1600 UTC 26 June 2019 to 0000 UTC 27 June 2019
Forecast type: TEMPORARY: The following changes expected for less than half the time period
Winds: variable direction winds at 40 MPH (35 knots; 18.0 m/s)
Visibility: 1.93 miles (3.11 km)
Ceiling: 3000 feet AGL
Clouds: broken clouds at 3000 feet AGL
Weather: TSRA SQ  (rain associated with thunderstorm(s), squal)